OERK/RUH METAR and TAF weather

Enter ICAO airport designator
Station Type Date Time Source
OERK METAR 2020/07/15 07:00 UTC NOAA

OERK 150700Z 25006KT 9000 SKC 41/09 Q1006 NOSIG


Station Type Date Time Source
OERK Decoded METAR 2020/07/15 07:00 UTC NOAA

King Khaled International Airport, Saudi Arabia (OERK) 24-56N 046-43E 612M
Jul 15, 2020 - 03:00 AM EDT / 2020.07.15 0700 UTC
Wind: from the WSW (250 degrees) at 7 MPH (6 KT):0
Visibility: 5 mile(s):0
Sky conditions: clear
Temperature: 105 F (41 C)
Dew Point: 48 F (9 C)
Relative Humidity: 14%
Pressure (altimeter): 29.71 in. Hg (1006 hPa)
ob: OERK 150700Z 25006KT 9000 SKC 41/09 Q1006 NOSIG
cycle: 7

Station Type Date Time Source
OERK TAF 2020/07/15 06:07 UTC NOAA

TAF OERK 150500Z 1506/1612 26008KT CAVOK
BECMG 1521/1523 VRB03KT

Example: see airport list